createdAt,value
2019-02-14T00:02:48.429Z,1.91
2019-02-14T00:06:55.405Z,1.91
2019-02-14T00:11:02.262Z,1.90
2019-02-14T00:15:10.525Z,1.80
2019-02-14T00:19:17.463Z,1.81
2019-02-14T00:23:28.884Z,1.70
2019-02-14T00:27:36.121Z,1.60
2019-02-14T00:31:42.983Z,1.69
2019-02-14T00:35:49.874Z,1.52
2019-02-14T00:39:56.755Z,1.53
2019-02-14T00:44:03.690Z,1.51
2019-02-14T00:48:10.505Z,1.54
2019-02-14T00:52:17.501Z,1.53
2019-02-14T00:56:24.391Z,1.60
2019-02-14T01:00:31.201Z,1.46
2019-02-14T01:04:38.005Z,1.40
2019-02-14T01:08:44.900Z,1.36
2019-02-14T01:12:51.759Z,1.44
2019-02-14T01:16:58.723Z,1.44
2019-02-14T01:21:05.539Z,1.39
2019-02-14T01:25:12.465Z,1.26
2019-02-14T01:29:19.561Z,1.27
2019-02-14T01:33:26.518Z,1.18
2019-02-14T01:37:33.384Z,1.21
2019-02-14T01:41:40.326Z,1.17
2019-02-14T01:45:47.157Z,0.96
2019-02-14T01:49:54.011Z,0.97
2019-02-14T01:54:02.086Z,0.87
2019-02-14T01:58:08.962Z,0.73
2019-02-14T02:02:16.250Z,0.72
2019-02-14T02:06:23.198Z,0.65
2019-02-14T02:10:31.214Z,0.60
2019-02-14T02:14:38.027Z,0.56
2019-02-14T02:18:45.041Z,0.57
2019-02-14T02:22:52.056Z,0.53
2019-02-14T02:26:58.892Z,0.50
2019-02-14T02:31:06.789Z,0.55
2019-02-14T02:35:13.618Z,0.51
2019-02-14T02:39:20.530Z,0.53
2019-02-14T02:43:27.346Z,0.55
2019-02-14T02:47:34.251Z,0.42
2019-02-14T02:51:41.348Z,0.57
2019-02-14T02:55:48.156Z,0.52
2019-02-14T02:59:55.046Z,0.49
2019-02-14T03:04:01.934Z,0.50
2019-02-14T03:08:09.009Z,0.49
2019-02-14T03:12:15.920Z,0.53
2019-02-14T03:16:22.724Z,0.51
2019-02-14T03:20:29.692Z,0.36
2019-02-14T03:24:36.655Z,0.34
2019-02-14T03:28:43.548Z,0.33
2019-02-14T03:32:50.454Z,0.36
2019-02-14T03:36:57.323Z,0.37
2019-02-14T03:41:04.326Z,0.42
2019-02-14T03:45:15.272Z,0.38
2019-02-14T03:49:22.111Z,0.36
2019-02-14T03:53:28.970Z,0.41
2019-02-14T03:57:35.854Z,0.23
2019-02-14T04:01:42.883Z,0.18
2019-02-14T04:05:50.042Z,0.09
2019-02-14T04:09:57.004Z,0.05
2019-02-14T04:14:03.832Z,-0.01
2019-02-14T04:18:10.752Z,0.06
2019-02-14T04:22:17.726Z,0.14
2019-02-14T04:26:24.601Z,0.08
2019-02-14T04:30:31.982Z,0.18
2019-02-14T04:34:39.143Z,0.16
2019-02-14T04:38:46.117Z,0.16
2019-02-14T04:42:53.137Z,0.27
2019-02-14T04:47:00.073Z,0.25
2019-02-14T04:51:07.305Z,0.21
2019-02-14T04:55:14.609Z,0.21
2019-02-14T04:59:21.660Z,0.11
2019-02-14T05:03:28.805Z,0.10
2019-02-14T05:07:39.148Z,0.06
2019-02-14T05:11:46.441Z,0.03
2019-02-14T05:15:53.420Z,0.11
2019-02-14T05:20:00.560Z,0.09
2019-02-14T05:24:07.602Z,0.03
2019-02-14T05:28:14.596Z,0.06
2019-02-14T05:32:21.687Z,-0.06
2019-02-14T05:36:28.766Z,-0.02
2019-02-14T05:40:35.719Z,0.02
2019-02-14T05:44:42.784Z,0.07
2019-02-14T05:48:49.753Z,0.12
2019-02-14T05:52:56.684Z,0.13
2019-02-14T05:57:03.613Z,0.08
2019-02-14T06:01:12.887Z,0.13
2019-02-14T06:05:19.747Z,0.18
2019-02-14T06:09:26.765Z,0.19
2019-02-14T06:13:33.825Z,0.19
2019-02-14T06:17:40.820Z,0.20
2019-02-14T06:21:47.738Z,0.23
2019-02-14T06:25:54.632Z,0.21
2019-02-14T06:30:01.530Z,0.44
2019-02-14T06:34:08.636Z,0.42
2019-02-14T06:38:15.500Z,0.53
2019-02-14T06:42:22.423Z,0.41
2019-02-14T06:46:29.310Z,0.39
2019-02-14T06:50:36.259Z,0.42
2019-02-14T06:54:43.316Z,0.37
2019-02-14T06:58:50.690Z,0.31
2019-02-14T07:02:57.612Z,0.38
2019-02-14T07:07:04.452Z,0.15
2019-02-14T07:11:11.388Z,0.17
2019-02-14T07:15:18.317Z,0.12
2019-02-14T07:19:25.319Z,0.03
2019-02-14T07:23:32.288Z,0.06
2019-02-14T07:27:39.211Z,0.00
2019-02-14T07:31:46.376Z,0.07
2019-02-14T07:35:53.267Z,-0.01
2019-02-14T07:40:00.354Z,-0.01
2019-02-14T07:44:07.488Z,0.01
2019-02-14T07:48:14.427Z,0.15
2019-02-14T07:52:25.251Z,0.16
2019-02-14T07:56:29.874Z,0.25
2019-02-14T08:00:36.748Z,0.27
2019-02-14T08:04:43.714Z,0.30
2019-02-14T08:08:50.761Z,0.33
2019-02-14T08:12:57.661Z,0.39
2019-02-14T08:17:04.551Z,0.49
2019-02-14T08:21:11.437Z,0.92
2019-02-14T08:25:18.423Z,1.13
2019-02-14T08:29:25.367Z,1.27
2019-02-14T08:33:32.282Z,1.67
2019-02-14T08:37:45.527Z,2.06
2019-02-14T08:41:47.891Z,2.72
2019-02-14T08:45:54.879Z,3.37
2019-02-14T08:50:01.875Z,3.49
2019-02-14T08:54:08.832Z,3.54
2019-02-14T08:58:15.749Z,3.80
2019-02-14T09:02:22.707Z,4.59
2019-02-14T09:06:31.581Z,4.83
2019-02-14T09:10:39.570Z,4.34
2019-02-14T09:14:46.550Z,4.21
2019-02-14T09:18:53.629Z,4.26
2019-02-14T09:23:00.767Z,5.13
2019-02-14T09:27:07.701Z,4.96
2019-02-14T09:31:14.582Z,5.85
2019-02-14T09:35:21.527Z,6.13
2019-02-14T09:39:28.512Z,5.80
2019-02-14T09:43:35.379Z,5.33
2019-02-14T09:47:43.874Z,5.10
2019-02-14T09:51:50.926Z,5.59
2019-02-14T09:55:57.930Z,5.61
2019-02-14T10:00:05.119Z,5.16
2019-02-14T10:04:12.475Z,5.35
2019-02-14T10:08:19.334Z,6.12
2019-02-14T10:12:26.317Z,5.83
2019-02-14T10:16:33.177Z,6.20
2019-02-14T10:20:39.998Z,6.62
2019-02-14T10:24:47.079Z,6.43
2019-02-14T10:29:03.039Z,6.62
2019-02-14T10:33:10.353Z,5.90
2019-02-14T10:37:18.237Z,6.67
2019-02-14T10:41:25.084Z,7.00
2019-02-14T10:45:56.106Z,7.25
2019-02-14T10:50:03.093Z,7.31
2019-02-14T10:54:13.364Z,7.73
2019-02-14T10:58:20.739Z,8.06
2019-02-14T11:02:28.898Z,8.21
2019-02-14T11:06:37.852Z,8.85
2019-02-14T11:10:44.941Z,9.02
2019-02-14T11:14:51.896Z,9.08
2019-02-14T11:19:03.087Z,9.19
2019-02-14T11:23:10.140Z,8.75
2019-02-14T11:27:22.714Z,9.23
2019-02-14T11:31:30.230Z,9.39
2019-02-14T11:35:37.305Z,9.84
2019-02-14T11:39:48.274Z,9.46
2019-02-14T11:43:55.228Z,9.69
2019-02-14T11:48:02.838Z,10.18
2019-02-14T11:52:11.213Z,10.75
2019-02-14T11:56:18.206Z,11.01
2019-02-14T12:00:26.022Z,11.27
2019-02-14T12:04:32.907Z,11.25
2019-02-14T12:08:48.936Z,10.94
2019-02-14T12:12:51.622Z,11.95
2019-02-14T12:16:58.719Z,10.88
2019-02-14T12:21:10.203Z,11.27
2019-02-14T12:25:17.583Z,11.00
2019-02-14T12:29:24.523Z,10.91
2019-02-14T12:33:31.457Z,10.19
2019-02-14T12:37:38.328Z,10.50
2019-02-14T12:41:45.447Z,10.43
2019-02-14T12:45:52.968Z,10.66
2019-02-14T12:49:59.926Z,10.32
2019-02-14T12:54:09.278Z,10.36
2019-02-14T12:58:16.577Z,10.98
2019-02-14T13:02:23.748Z,10.73
2019-02-14T13:06:30.650Z,10.87
2019-02-14T13:10:37.676Z,11.37
2019-02-14T13:14:44.754Z,11.35
2019-02-14T13:18:51.588Z,11.67
2019-02-14T13:22:58.484Z,11.73
2019-02-14T13:27:05.419Z,12.56
2019-02-14T13:31:12.459Z,13.07
2019-02-14T13:35:19.302Z,13.41
2019-02-14T13:39:46.390Z,13.82
2019-02-14T13:43:53.611Z,13.56
2019-02-14T13:48:00.505Z,13.29
2019-02-14T13:52:07.347Z,12.93
2019-02-14T13:56:16.030Z,12.61
2019-02-14T14:00:26.438Z,12.12
2019-02-14T14:04:33.367Z,11.41
2019-02-14T14:08:40.546Z,11.85
2019-02-14T14:12:47.486Z,11.76
2019-02-14T14:16:54.522Z,11.57
2019-02-14T14:21:01.464Z,11.27
2019-02-14T14:25:08.841Z,11.40
2019-02-14T14:29:17.380Z,11.14
2019-02-14T14:33:24.285Z,11.05
2019-02-14T14:37:31.160Z,10.81
2019-02-14T14:41:38.017Z,11.11
2019-02-14T14:46:20.301Z,10.69
2019-02-14T14:50:27.215Z,10.51
2019-02-14T14:54:34.046Z,10.34
2019-02-14T14:58:40.927Z,10.33
2019-02-14T15:02:50.246Z,10.24
2019-02-14T15:06:57.954Z,10.26
2019-02-14T15:11:05.323Z,10.15
2019-02-14T15:15:12.292Z,10.17
2019-02-14T15:19:19.205Z,10.12
2019-02-14T15:23:26.156Z,9.92
2019-02-14T15:27:33.351Z,10.15
2019-02-14T15:31:40.379Z,9.83
2019-02-14T15:35:47.499Z,9.90
2019-02-14T15:39:54.513Z,10.01
2019-02-14T15:44:02.639Z,9.98
2019-02-14T15:48:09.535Z,9.81
2019-02-14T15:52:16.498Z,9.85
2019-02-14T15:56:23.433Z,9.84
2019-02-14T16:00:30.665Z,9.71
2019-02-14T16:04:38.990Z,9.70
2019-02-14T16:08:47.135Z,9.62
2019-02-14T16:12:54.611Z,9.45
2019-02-14T16:17:02.652Z,9.37
2019-02-14T16:21:09.785Z,9.23
2019-02-14T16:25:16.733Z,9.18
2019-02-14T16:29:25.017Z,9.12
2019-02-14T16:33:32.401Z,9.11
2019-02-14T16:37:39.443Z,8.95
2019-02-14T16:41:46.470Z,8.76
2019-02-14T16:45:53.361Z,8.72
2019-02-14T16:50:00.358Z,8.66
2019-02-14T16:54:07.250Z,8.51
2019-02-14T16:58:14.516Z,8.44
2019-02-14T17:02:21.482Z,8.32
2019-02-14T17:06:28.699Z,8.26
2019-02-14T17:10:37.210Z,8.15
2019-02-14T17:14:44.697Z,8.09
2019-02-14T17:18:51.666Z,8.02
2019-02-14T17:22:58.633Z,7.94
2019-02-14T17:27:05.705Z,8.01
2019-02-14T17:31:12.799Z,7.88
2019-02-14T17:35:19.814Z,7.79
2019-02-14T17:39:26.956Z,7.66
2019-02-14T17:43:34.118Z,7.55
2019-02-14T17:47:41.112Z,7.51
2019-02-14T17:51:48.106Z,7.39
2019-02-14T17:55:55.113Z,7.42
2019-02-14T18:00:02.202Z,7.35
2019-02-14T18:04:09.856Z,7.31
2019-02-14T18:08:17.093Z,7.18
2019-02-14T18:12:24.518Z,7.16
2019-02-14T18:16:32.513Z,7.12
2019-02-14T18:20:39.397Z,7.05
2019-02-14T18:24:46.552Z,6.99
2019-02-14T18:28:55.394Z,6.92
2019-02-14T18:33:04.805Z,6.83
2019-02-14T18:37:12.087Z,6.80
2019-02-14T18:41:19.134Z,6.79
2019-02-14T18:45:26.319Z,6.82
2019-02-14T18:49:33.373Z,6.77
2019-02-14T18:53:40.634Z,6.76
2019-02-14T18:57:47.845Z,6.68
2019-02-14T19:01:54.980Z,6.62
2019-02-14T19:06:02.122Z,6.62
2019-02-14T19:10:11.556Z,6.59
2019-02-14T19:14:18.747Z,6.54
2019-02-14T19:18:25.683Z,6.51
2019-02-14T19:22:35.126Z,6.43
2019-02-14T19:26:42.216Z,6.37
2019-02-14T19:30:49.252Z,6.31
2019-02-14T19:34:56.440Z,6.30
2019-02-14T19:39:09.609Z,6.25
2019-02-14T19:43:17.580Z,6.18
2019-02-14T19:47:26.350Z,6.10
2019-02-14T19:51:33.494Z,6.07
2019-02-14T19:55:40.635Z,6.00
2019-02-14T19:59:47.977Z,5.91
2019-02-14T20:03:55.104Z,5.91
2019-02-14T20:08:02.126Z,5.87
2019-02-14T20:12:09.290Z,5.81
2019-02-14T20:16:17.445Z,5.77
2019-02-14T20:20:24.436Z,5.72
2019-02-14T20:24:32.043Z,5.61
2019-02-14T20:28:39.127Z,5.62
2019-02-14T20:32:46.283Z,5.58
2019-02-14T20:36:53.495Z,5.58
2019-02-14T20:41:00.760Z,5.52
2019-02-14T20:45:08.898Z,5.47
2019-02-14T20:49:16.337Z,5.47
2019-02-14T20:53:23.274Z,5.38
2019-02-14T20:57:31.529Z,5.35
2019-02-14T21:01:41.605Z,5.26
2019-02-14T21:05:48.593Z,5.21
2019-02-14T21:09:55.975Z,5.17
2019-02-14T21:14:06.676Z,5.11
2019-02-14T21:18:13.666Z,5.15
2019-02-14T21:22:20.524Z,5.15
2019-02-14T21:26:27.538Z,5.17
2019-02-14T21:30:36.489Z,5.18
2019-02-14T21:34:46.201Z,5.19
2019-02-14T21:38:53.140Z,5.48
2019-02-14T21:42:59.999Z,5.57
2019-02-14T21:47:10.269Z,5.45
2019-02-14T21:51:20.675Z,5.41
2019-02-14T21:55:29.719Z,5.39
2019-02-14T21:59:37.130Z,5.35
2019-02-14T22:03:44.937Z,5.22
2019-02-14T22:07:51.996Z,5.30
2019-02-14T22:11:58.855Z,5.26
2019-02-14T22:16:10.225Z,5.20
2019-02-14T22:20:18.902Z,5.08
2019-02-14T22:24:25.889Z,5.04
2019-02-14T22:28:32.789Z,5.02
2019-02-14T22:32:39.713Z,4.96
2019-02-14T22:36:47.707Z,4.88
2019-02-14T22:40:54.971Z,4.85
2019-02-14T22:45:01.963Z,4.80
2019-02-14T22:49:08.963Z,4.69
2019-02-14T22:53:15.965Z,4.57
2019-02-14T22:57:22.850Z,4.43
2019-02-14T23:01:29.738Z,4.29
2019-02-14T23:05:36.912Z,4.20
2019-02-14T23:09:43.780Z,4.17
2019-02-14T23:13:52.221Z,4.11
2019-02-14T23:17:59.072Z,4.00
2019-02-14T23:22:06.030Z,3.87
2019-02-14T23:26:12.926Z,3.80
2019-02-14T23:30:19.791Z,3.79
2019-02-14T23:34:26.744Z,3.83
2019-02-14T23:38:33.557Z,3.76
2019-02-14T23:42:40.425Z,3.77
2019-02-14T23:46:47.263Z,3.70
2019-02-14T23:50:54.149Z,3.65
2019-02-14T23:55:01.074Z,3.49
2019-02-14T23:59:11.005Z,3.51
